createdAt,value
2024-04-08T10:39:40.338Z,98368.78
2024-04-08T10:40:43.429Z,98366.47
2024-04-08T10:41:45.659Z,98374.88
2024-04-08T10:42:48.763Z,98360.44
2024-04-08T10:43:53.568Z,98364.78
2024-04-08T10:44:56.116Z,98369.66
2024-04-08T10:45:58.440Z,98369.97
2024-04-08T10:47:03.354Z,98360.59
2024-04-08T10:48:10.704Z,98361.19
2024-04-08T10:49:12.915Z,98361.72
2024-04-08T10:50:15.437Z,98356.06
2024-04-08T10:51:21.347Z,98360.06
2024-04-08T10:52:23.605Z,98364.38
2024-04-08T10:53:26.614Z,98357.94
2024-04-08T10:54:32.535Z,98362.78
2024-04-08T10:55:37.347Z,98367.41
2024-04-08T10:56:39.545Z,98359.09
2024-04-08T10:57:41.729Z,98353.31
2024-04-08T10:58:46.601Z,98353.84
2024-04-08T10:59:48.751Z,98347.41
2024-04-08T11:00:50.979Z,98360.84
2024-04-08T11:01:56.373Z,98355.75
2024-04-08T11:02:58.829Z,98343.38
2024-04-08T11:04:01.299Z,98351.72
2024-04-08T11:05:08.221Z,98345.28
2024-04-08T11:06:12.381Z,98350.09
2024-04-08T11:07:14.701Z,98351.72
2024-04-08T11:08:17.672Z,98345.28
2024-04-08T11:09:22.854Z,98349.28
2024-04-08T11:10:24.978Z,98354.44
2024-04-08T11:11:30.151Z,98354.47
2024-04-08T11:12:35.276Z,98347.31
2024-04-08T11:13:37.398Z,98349.47
2024-04-08T11:14:41.130Z,98341.66
2024-04-08T11:15:51.302Z,98334.94
2024-04-08T11:16:53.496Z,98347.59
2024-04-08T11:17:56.884Z,98341.13
2024-04-08T11:18:59.496Z,98343.31
2024-04-08T11:20:06.783Z,98345.22
2024-04-08T11:21:09.364Z,98337.97
2024-04-08T11:22:11.762Z,98333.66
2024-04-08T11:23:15.450Z,98332.78
2024-04-08T11:24:20.273Z,98339.78
2024-04-08T11:25:22.526Z,98339.16
2024-04-08T11:26:24.608Z,98324.25
2024-04-08T11:27:29.691Z,98322.53
2024-04-08T11:28:37.563Z,98324.59
2024-04-08T11:29:42.948Z,98323.44
2024-04-08T11:30:47.516Z,98323.41
2024-04-08T11:31:49.978Z,98319.63
2024-04-08T11:32:55.956Z,98319.66
2024-04-08T11:33:58.170Z,98309.69
2024-04-08T11:35:01.206Z,98318.63
2024-04-08T11:36:04.235Z,98312.38
2024-04-08T11:37:09.665Z,98315.03
2024-04-08T11:38:26.105Z,98314.22
2024-04-08T11:39:36.744Z,98304.50
2024-04-08T11:40:38.757Z,98313.16
2024-04-08T11:41:43.817Z,98315.78
2024-04-08T11:42:48.608Z,98310.88
2024-04-08T11:43:50.698Z,98300.03
2024-04-08T11:45:05.829Z,98311.25
2024-04-08T11:46:10.101Z,98310.56
2024-04-08T11:47:14.890Z,98301.59
2024-04-08T11:48:21.408Z,98300.66
2024-04-08T11:49:23.530Z,98308.59
2024-04-08T11:50:26.080Z,98312.78
2024-04-08T11:51:31.036Z,98309.09
2024-04-08T11:52:33.234Z,98311.53
2024-04-08T11:53:35.408Z,98312.09
2024-04-08T11:54:49.672Z,98301.50
2024-04-08T11:56:02.289Z,98301.66
2024-04-08T11:57:05.251Z,98297.63
2024-04-08T11:58:10.315Z,98297.44
2024-04-08T11:59:12.586Z,98293.63
2024-04-08T12:00:21.844Z,98295.25
2024-04-08T12:01:24.419Z,98290.03
2024-04-08T12:02:26.808Z,98289.41
2024-04-08T12:03:28.894Z,98284.66
2024-04-08T12:04:33.916Z,98290.97
2024-04-08T12:05:36.091Z,98295.53
2024-04-08T12:06:38.349Z,98303.75
2024-04-08T12:07:43.541Z,98303.91
2024-04-08T12:08:45.815Z,98292.50
2024-04-08T12:09:47.890Z,98293.38
2024-04-08T12:10:50.064Z,98297.13
2024-04-08T12:11:55.247Z,98291.69
2024-04-08T12:13:17.300Z,98302.59
2024-04-08T12:14:19.541Z,98301.50
2024-04-08T12:15:24.722Z,98284.75
2024-04-08T12:16:27.817Z,98297.53
2024-04-08T12:17:29.926Z,98294.75
2024-04-08T12:18:32.160Z,98296.06
2024-04-08T12:19:36.853Z,98291.53
2024-04-08T12:20:39.116Z,98293.94
2024-04-08T12:21:41.211Z,98286.50
2024-04-08T12:22:45.935Z,98285.00
2024-04-08T12:23:48.161Z,98285.38
2024-04-08T12:24:50.214Z,98288.34
2024-04-08T12:25:55.076Z,98283.69
2024-04-08T12:26:57.363Z,98283.41
2024-04-08T12:27:59.444Z,98271.41
2024-04-08T12:29:06.796Z,98280.72
2024-04-08T12:30:09.949Z,98281.53
2024-04-08T12:31:12.091Z,98297.19
2024-04-08T12:32:14.066Z,98283.63
2024-04-08T12:33:18.773Z,98281.50
2024-04-08T12:34:21.021Z,98293.91
2024-04-08T12:35:23.200Z,98285.97
2024-04-08T12:36:27.736Z,98286.75
2024-04-08T12:37:35.388Z,98282.69
2024-04-08T12:38:37.822Z,98275.06
2024-04-08T12:39:41.403Z,98267.41
2024-04-08T12:40:46.408Z,98275.44
2024-04-08T12:41:48.753Z,98274.72
2024-04-08T12:42:50.888Z,98270.59
2024-04-08T12:43:55.652Z,98274.78
2024-04-08T12:45:08.288Z,98265.38
2024-04-08T12:46:16.868Z,98253.69
2024-04-08T12:47:18.999Z,98264.09
2024-04-08T12:48:21.346Z,98257.75
2024-04-08T12:49:28.012Z,98254.94
2024-04-08T12:50:33.169Z,98251.19
2024-04-08T12:51:35.856Z,98260.00
2024-04-08T12:52:38.389Z,98256.81
2024-04-08T12:53:43.232Z,98256.69
2024-04-08T12:54:45.408Z,98252.06
2024-04-08T12:55:48.819Z,98259.53
2024-04-08T12:56:51.087Z,98255.13
2024-04-08T12:57:56.062Z,98251.31
2024-04-08T12:58:58.375Z,98256.75
2024-04-08T13:00:04.594Z,98254.31
2024-04-08T13:01:09.956Z,98249.03
2024-04-08T13:02:12.266Z,98252.84
2024-04-08T13:03:14.650Z,98251.94
2024-04-08T13:04:19.698Z,98248.34
2024-04-08T13:05:21.975Z,98245.28
2024-04-08T13:06:24.554Z,98234.31
2024-04-08T13:07:26.859Z,98249.72
2024-04-08T13:08:31.755Z,98256.88
2024-04-08T13:09:33.930Z,98254.56
2024-04-08T13:10:36.034Z,98244.41
2024-04-08T13:11:38.354Z,98251.31
2024-04-08T13:12:43.184Z,98236.78
2024-04-08T13:13:48.138Z,98241.63
2024-04-08T13:14:51.602Z,98241.09
2024-04-08T13:15:56.412Z,98245.38
2024-04-08T13:17:02.145Z,98236.16
2024-04-08T13:18:04.750Z,98249.38
2024-04-08T13:19:06.905Z,98242.50
2024-04-08T13:20:09.521Z,98244.09
2024-04-08T13:21:14.826Z,98240.50
2024-04-08T13:22:16.932Z,98241.78
2024-04-08T13:23:19.005Z,98239.66
2024-04-08T13:24:23.822Z,98240.78
2024-04-08T13:25:26.092Z,98240.91
2024-04-08T13:26:28.356Z,98247.72
2024-04-08T13:27:30.649Z,98248.56
2024-04-08T13:28:35.474Z,98242.25
2024-04-08T13:29:37.951Z,98248.97
2024-04-08T13:30:40.098Z,98250.50
2024-04-08T13:31:47.646Z,98252.03
2024-04-08T13:32:49.857Z,98253.53
2024-04-08T13:33:52.042Z,98249.44
2024-04-08T13:34:56.888Z,98245.81
2024-04-08T13:35:59.172Z,98242.44
2024-04-08T13:37:01.259Z,98242.28
2024-04-08T13:38:03.643Z,98249.72
2024-04-08T13:39:09.439Z,98247.72
2024-04-08T13:40:12.889Z,98238.72
2024-04-08T13:41:15.054Z,98234.13
2024-04-08T13:42:17.311Z,98235.44
2024-04-08T13:43:22.091Z,98231.34
2024-04-08T13:44:24.136Z,98235.44
2024-04-08T13:46:28.619Z,98227.78
2024-04-08T13:47:36.148Z,98216.78
2024-04-08T13:48:38.434Z,98226.06
2024-04-08T13:49:43.656Z,98233.78
2024-04-08T13:50:47.329Z,98224.88
2024-04-08T13:51:56.834Z,98230.56
2024-04-08T13:52:58.968Z,98227.31
2024-04-08T13:54:01.737Z,98227.22
2024-04-08T13:55:07.011Z,98221.63
2024-04-08T13:56:09.632Z,98221.53
2024-04-08T13:57:11.926Z,98199.75
2024-04-08T13:58:14.076Z,98212.00
2024-04-08T13:59:18.928Z,98208.13
2024-04-08T14:00:21.188Z,98227.47
2024-04-08T14:01:24.029Z,98217.00
2024-04-08T14:02:29.019Z,98223.03
2024-04-08T14:03:34.016Z,98216.63
2024-04-08T14:04:37.118Z,98215.38
2024-04-08T14:05:39.437Z,98213.63
2024-04-08T14:06:44.319Z,98212.69
2024-04-08T14:07:46.651Z,98210.16
2024-04-08T14:08:48.819Z,98204.03
2024-04-08T14:09:54.089Z,98204.03
2024-04-08T14:10:56.198Z,98203.47
2024-04-08T14:11:58.504Z,98207.34
2024-04-08T14:13:00.890Z,98205.63
2024-04-08T14:14:05.859Z,98199.47
2024-04-08T14:15:09.301Z,98200.72
2024-04-08T14:16:11.467Z,98195.25
2024-04-08T14:17:18.689Z,98206.31
2024-04-08T14:18:20.975Z,98203.63
2024-04-08T14:19:25.968Z,98201.13
2024-04-08T14:20:31.314Z,98194.34
2024-04-08T14:21:33.577Z,98194.84
2024-04-08T14:22:38.583Z,98198.34
2024-04-08T14:23:43.843Z,98186.16
2024-04-08T14:24:45.874Z,98194.56
2024-04-08T14:25:48.104Z,98196.00
2024-04-08T14:26:50.264Z,98198.53
2024-04-08T14:27:55.108Z,98194.31
2024-04-08T14:28:57.372Z,98197.66
2024-04-08T14:30:00.932Z,98188.59
2024-04-08T14:31:06.483Z,98190.00
2024-04-08T14:32:08.549Z,98191.19
2024-04-08T14:33:10.960Z,98190.75
2024-04-08T14:34:16.459Z,98189.78
2024-04-08T14:35:21.259Z,98187.13
2024-04-08T14:36:25.372Z,98176.94
2024-04-08T14:37:43.968Z,98185.13
2024-04-08T14:39:05.343Z,98187.66
2024-04-08T14:40:14.462Z,98176.03
2024-04-08T14:41:22.178Z,98180.56
2024-04-08T14:42:24.320Z,98182.59
2024-04-08T14:43:30.245Z,98179.28
2024-04-08T14:44:45.192Z,98185.09
2024-04-08T14:45:50.310Z,98184.00
2024-04-08T14:46:55.856Z,98185.44
2024-04-08T14:48:01.845Z,98188.66
2024-04-08T14:49:04.080Z,98178.78
2024-04-08T14:50:07.253Z,98182.44
2024-04-08T14:51:16.238Z,98187.78
2024-04-08T14:52:23.853Z,98193.41
2024-04-08T14:53:33.213Z,98190.00
2024-04-08T14:54:35.753Z,98184.50
2024-04-08T14:55:41.069Z,98187.16
2024-04-08T14:56:45.450Z,98190.00
2024-04-08T14:57:48.431Z,98183.72
2024-04-08T14:58:54.133Z,98183.25
2024-04-08T14:59:57.361Z,98191.53
2024-04-08T15:01:02.256Z,98186.34
2024-04-08T15:02:07.560Z,98184.44
2024-04-08T15:03:09.828Z,98182.03
2024-04-08T15:04:12.127Z,98177.25
2024-04-08T15:05:17.196Z,98172.22
2024-04-08T15:06:22.269Z,98170.66
2024-04-08T15:07:28.239Z,98178.06
2024-04-08T15:08:33.739Z,98175.63
2024-04-08T15:09:40.118Z,98180.75
2024-04-08T15:10:42.093Z,98175.91
2024-04-08T15:11:47.177Z,98172.41
2024-04-08T15:12:50.335Z,98178.44
2024-04-08T15:13:52.594Z,98172.81
2024-04-08T15:14:54.811Z,98170.22
2024-04-08T15:15:57.019Z,98173.59
2024-04-08T15:17:03.504Z,98172.16
2024-04-08T15:18:06.670Z,98179.28
2024-04-08T15:19:09.000Z,98166.41
2024-04-08T15:20:11.260Z,98169.06
2024-04-08T15:21:15.991Z,98167.97
2024-04-08T15:22:20.858Z,98172.84
2024-04-08T15:23:23.583Z,98170.97
2024-04-08T15:24:25.688Z,98164.81
2024-04-08T15:25:30.633Z,98164.06
2024-04-08T15:26:32.678Z,98164.63
2024-04-08T15:27:34.805Z,98164.09
2024-04-08T15:28:39.596Z,98165.53
2024-04-08T15:29:45.886Z,98164.44
2024-04-08T15:30:56.386Z,98170.97
2024-04-08T15:32:01.879Z,98163.41
2024-04-08T15:33:04.543Z,98163.38
2024-04-08T15:34:07.015Z,98165.22
2024-04-08T15:35:10.929Z,98162.88
2024-04-08T15:36:17.355Z,98158.63
2024-04-08T15:37:22.393Z,98165.16
2024-04-08T15:38:24.706Z,98164.63
2024-04-08T15:39:26.875Z,98164.69
2024-04-08T15:40:31.805Z,98168.00
2024-04-08T15:41:33.999Z,98160.78
2024-04-08T15:42:36.196Z,98161.66
2024-04-08T15:43:38.312Z,98162.78
2024-04-08T15:44:43.109Z,98161.97
2024-04-08T15:45:54.675Z,98160.09
2024-04-08T15:46:56.705Z,98164.72
2024-04-08T15:47:58.915Z,98164.41
2024-04-08T15:49:03.916Z,98168.97
2024-04-08T15:50:07.160Z,98165.19
2024-04-08T15:51:10.420Z,98160.56
2024-04-08T15:52:12.580Z,98162.94
2024-04-08T15:53:19.891Z,98161.81
2024-04-08T15:54:22.692Z,98166.91
2024-04-08T15:55:24.867Z,98169.81
2024-04-08T15:56:27.446Z,98162.22
2024-04-08T15:57:32.611Z,98161.88
2024-04-08T15:58:34.991Z,98167.16
2024-04-08T15:59:37.198Z,98165.47
2024-04-08T16:00:39.555Z,98173.91
2024-04-08T16:01:44.313Z,98159.63
2024-04-08T16:02:46.553Z,98166.50
2024-04-08T16:03:49.066Z,98167.81
2024-04-08T16:04:51.512Z,98165.59
2024-04-08T16:05:53.885Z,98160.97
2024-04-08T16:06:58.771Z,98166.78
2024-04-08T16:08:01.259Z,98164.78
2024-04-08T16:09:06.051Z,98159.56
2024-04-08T16:10:09.651Z,98163.50
2024-04-08T16:11:21.073Z,98163.41
2024-04-08T16:12:23.455Z,98161.66
2024-04-08T16:13:25.551Z,98158.63
2024-04-08T16:14:30.204Z,98157.19
2024-04-08T16:15:33.385Z,98157.84
2024-04-08T16:16:35.865Z,98154.78
2024-04-08T16:17:40.875Z,98155.78
2024-04-08T16:18:43.237Z,98157.59
2024-04-08T16:19:48.064Z,98154.03
2024-04-08T16:20:56.976Z,98159.91
2024-04-08T16:22:01.738Z,98151.53
2024-04-08T16:23:21.174Z,98149.94
2024-04-08T16:24:28.737Z,98151.22
2024-04-08T16:25:33.432Z,98148.00
2024-04-08T16:26:35.868Z,98141.25
2024-04-08T16:27:39.800Z,98149.78
2024-04-08T16:28:44.570Z,98143.84
2024-04-08T16:29:47.384Z,98142.25
2024-04-08T16:30:56.197Z,98142.72
2024-04-08T16:32:00.859Z,98140.56
2024-04-08T16:33:03.247Z,98136.47
2024-04-08T16:34:05.595Z,98142.34
2024-04-08T16:35:10.755Z,98135.56
2024-04-08T16:36:13.804Z,98140.38
2024-04-08T16:37:15.903Z,98139.81
2024-04-08T16:38:18.842Z,98144.59
2024-04-08T16:39:23.602Z,98136.00
2024-04-08T16:40:28.336Z,98140.47
2024-04-08T16:41:30.596Z,98137.72
2024-04-08T16:42:33.059Z,98140.88
2024-04-08T16:43:35.567Z,98132.28
2024-04-08T16:44:40.411Z,98135.69
2024-04-08T16:45:42.627Z,98135.63
2024-04-08T16:46:45.489Z,98140.88
2024-04-08T16:47:47.689Z,98144.28
2024-04-08T16:48:52.634Z,98137.25
2024-04-08T16:49:55.465Z,98143.56
2024-04-08T16:50:58.516Z,98134.63
2024-04-08T16:52:00.690Z,98139.66
2024-04-08T16:53:05.431Z,98135.25
2024-04-08T16:54:07.675Z,98138.88
2024-04-08T16:55:09.801Z,98134.72
2024-04-08T16:56:17.128Z,98133.25
2024-04-08T16:57:19.312Z,98136.56
2024-04-08T16:58:21.917Z,98141.00
2024-04-08T16:59:24.066Z,98138.69
2024-04-08T17:00:29.067Z,98136.66
2024-04-08T17:01:31.801Z,98138.03
2024-04-08T17:02:33.996Z,98137.59
2024-04-08T17:03:36.411Z,98133.44
2024-04-08T17:04:41.493Z,98134.38
2024-04-08T17:05:44.416Z,98134.50
2024-04-08T17:06:50.294Z,98138.09
2024-04-08T17:07:52.725Z,98123.50
2024-04-08T17:08:57.511Z,98138.81
2024-04-08T17:09:59.691Z,98129.91
2024-04-08T17:11:02.607Z,98132.44
2024-04-08T17:12:11.300Z,98129.66
2024-04-08T17:13:13.422Z,98128.72
2024-04-08T17:14:15.461Z,98132.06
2024-04-08T17:15:20.033Z,98133.81
2024-04-08T17:16:26.881Z,98135.56
2024-04-08T17:17:29.069Z,98138.09
2024-04-08T17:18:31.807Z,98136.38
2024-04-08T17:19:34.094Z,98145.50
2024-04-08T17:20:38.930Z,98145.25
2024-04-08T17:21:41.074Z,98139.69
2024-04-08T17:22:43.260Z,98142.53
2024-04-08T17:23:45.520Z,98145.59
2024-04-08T17:24:50.265Z,98140.22
2024-04-08T17:25:53.122Z,98139.72
2024-04-08T17:26:55.363Z,98141.19
2024-04-08T17:28:00.113Z,98139.81
2024-04-08T17:29:04.962Z,98141.06
2024-04-08T17:30:08.401Z,98138.88
2024-04-08T17:31:10.569Z,98144.28
2024-04-08T17:32:17.707Z,98142.28
2024-04-08T17:33:20.474Z,98143.16
2024-04-08T17:34:22.967Z,98140.56
2024-04-08T17:35:27.647Z,98140.44
2024-04-08T17:36:29.943Z,98142.09
2024-04-08T17:37:32.057Z,98139.06
2024-04-08T17:38:39.017Z,98138.91
2024-04-08T17:39:43.869Z,98140.41
2024-04-08T17:40:55.029Z,98140.28
2024-04-08T17:41:57.177Z,98139.06
2024-04-08T17:43:04.948Z,98137.88
2024-04-08T17:44:08.400Z,98154.50
2024-04-08T17:45:10.661Z,98143.47
2024-04-08T17:46:15.464Z,98138.38
2024-04-08T17:47:17.774Z,98152.34
2024-04-08T17:48:20.294Z,98146.66
2024-04-08T17:49:23.502Z,98144.22
2024-04-08T17:50:28.465Z,98142.19
2024-04-08T17:51:30.724Z,98142.66
2024-04-08T17:52:32.841Z,98142.28
2024-04-08T17:53:39.105Z,98140.50
2024-04-08T17:54:41.314Z,98146.69
2024-04-08T17:55:43.442Z,98147.09
2024-04-08T17:56:45.654Z,98147.72
2024-04-08T17:57:51.408Z,98145.72
2024-04-08T17:58:56.232Z,98142.53
2024-04-08T17:59:58.516Z,98155.47
2024-04-08T18:01:08.073Z,98146.19
2024-04-08T18:02:10.412Z,98148.97
2024-04-08T18:03:12.602Z,98153.75
2024-04-08T18:04:17.499Z,98150.97
2024-04-08T18:05:19.684Z,98150.84
2024-04-08T18:06:23.281Z,98150.28
2024-04-08T18:07:28.164Z,98152.53
2024-04-08T18:08:30.220Z,98150.28
2024-04-08T18:09:32.731Z,98145.03
2024-04-08T18:10:38.024Z,98147.25
2024-04-08T18:11:48.518Z,98147.44
2024-04-08T18:12:56.185Z,98151.53
2024-04-08T18:14:01.871Z,98157.63
2024-04-08T18:15:05.200Z,98159.19
2024-04-08T18:16:11.018Z,98150.41
2024-04-08T18:17:15.045Z,98149.56
2024-04-08T18:18:17.422Z,98151.97
2024-04-08T18:19:22.324Z,98157.63
2024-04-08T18:20:24.749Z,98159.00
2024-04-08T18:21:27.684Z,98155.09
2024-04-08T18:22:29.740Z,98153.59
2024-04-08T18:23:34.553Z,98155.75
2024-04-08T18:24:39.872Z,98158.94
2024-04-08T18:25:42.805Z,98156.84
2024-04-08T18:26:47.772Z,98151.47
2024-04-08T18:27:51.554Z,98152.66
2024-04-08T18:28:54.225Z,98155.22
2024-04-08T18:29:59.292Z,98155.38
2024-04-08T18:31:06.056Z,98155.06
2024-04-08T18:32:08.206Z,98163.50
2024-04-08T18:33:10.636Z,98161.19
2024-04-08T18:34:13.101Z,98153.38
2024-04-08T18:35:18.221Z,98165.50
2024-04-08T18:36:20.676Z,98157.50
2024-04-08T18:37:23.921Z,98160.28
2024-04-08T18:42:50.550Z,98169.00
2024-04-08T18:43:55.516Z,98164.94
2024-04-08T18:45:00.257Z,98174.56
2024-04-08T18:46:03.464Z,98169.84
2024-04-08T18:47:08.981Z,98164.94
2024-04-08T18:48:11.384Z,98164.13
2024-04-08T18:49:14.174Z,98159.84
2024-04-08T18:50:16.457Z,98159.84
2024-04-08T18:51:21.601Z,98162.47
2024-04-08T18:52:23.871Z,98159.56
2024-04-08T18:53:26.139Z,98159.09
2024-04-08T18:54:30.998Z,98160.28
2024-04-08T18:55:33.415Z,98152.75
2024-04-08T18:56:35.664Z,98158.38
2024-04-08T18:57:38.802Z,98160.72
2024-04-08T18:58:43.804Z,98160.44
2024-04-08T18:59:45.966Z,98155.72
2024-04-08T19:00:50.840Z,98148.53
2024-04-08T19:01:53.067Z,98150.91
2024-04-08T19:02:55.716Z,98149.63
2024-04-08T19:04:00.605Z,98152.78
2024-04-08T19:05:03.897Z,98147.91
2024-04-08T19:06:06.508Z,98155.84
2024-04-08T19:07:12.045Z,98151.13
2024-04-08T19:08:14.241Z,98162.03
2024-04-08T19:09:16.914Z,98159.13
2024-04-08T19:10:21.708Z,98154.38
2024-04-08T19:11:31.805Z,98155.91
2024-04-08T19:12:38.385Z,98161.03
2024-04-08T19:13:43.244Z,98162.22
2024-04-08T19:14:45.440Z,98153.84
2024-04-08T19:15:50.285Z,98159.31
2024-04-08T19:16:58.176Z,98159.81
2024-04-08T19:18:00.815Z,98161.53
2024-04-08T19:19:04.595Z,98174.53
2024-04-08T19:20:07.985Z,98171.44
2024-04-08T19:21:12.741Z,98177.03
2024-04-08T19:22:14.992Z,98171.97
2024-04-08T19:23:17.048Z,98169.50
2024-04-08T19:24:20.925Z,98172.16
2024-04-08T19:25:25.757Z,98169.66
2024-04-08T19:26:30.076Z,98175.13
2024-04-08T19:27:32.412Z,98172.31
2024-04-08T19:28:37.389Z,98174.13
2024-04-08T19:29:39.614Z,98175.13
2024-04-08T19:30:41.890Z,98173.31
2024-04-08T19:31:47.811Z,98175.28
2024-04-08T19:32:53.093Z,98173.50
2024-04-08T19:33:55.253Z,98170.94
2024-04-08T19:34:57.644Z,98176.25
2024-04-08T19:36:02.597Z,98177.56
2024-04-08T19:37:05.728Z,98174.31
2024-04-08T19:38:08.652Z,98175.44
2024-04-08T19:39:10.742Z,98179.25
2024-04-08T19:40:17.198Z,98176.50
2024-04-08T19:41:19.544Z,98177.97
2024-04-08T19:42:21.730Z,98178.34
2024-04-08T19:43:23.961Z,98177.66
2024-04-08T19:44:28.720Z,98177.22
2024-04-08T19:45:37.727Z,98183.78
2024-04-08T19:46:41.691Z,98169.19
2024-04-08T19:47:47.130Z,98172.97
2024-04-08T19:48:52.151Z,98172.16
2024-04-08T19:49:54.899Z,98173.97
2024-04-08T19:50:57.635Z,98167.22
2024-04-08T19:52:00.687Z,98176.09
2024-04-08T19:53:05.601Z,98175.78
2024-04-08T19:54:07.846Z,98176.28
2024-04-08T19:55:09.872Z,98174.97
2024-04-08T19:56:13.222Z,98173.69
2024-04-08T19:57:17.950Z,98171.75
2024-04-08T19:58:20.093Z,98174.88
2024-04-08T19:59:22.269Z,98169.09
2024-04-08T20:00:27.208Z,98170.22
2024-04-08T20:01:29.425Z,98170.41
2024-04-08T20:02:32.094Z,98174.84
2024-04-08T20:03:37.295Z,98170.41
2024-04-08T20:04:42.295Z,98167.97
2024-04-08T20:05:44.399Z,98171.91
2024-04-08T20:06:46.555Z,98169.78
2024-04-08T20:07:48.699Z,98176.19
2024-04-08T20:08:54.079Z,98172.06
2024-04-08T20:09:56.218Z,98177.81
2024-04-08T20:11:01.115Z,98175.03
2024-04-08T20:12:03.429Z,98174.53
2024-04-08T20:13:08.200Z,98175.88
2024-04-08T20:14:11.075Z,98173.88
2024-04-08T20:15:13.183Z,98177.19
2024-04-08T20:16:19.515Z,98181.28
2024-04-08T20:17:21.841Z,98182.78
2024-04-08T20:18:24.090Z,98181.13
2024-04-08T20:19:30.257Z,98180.28
2024-04-08T20:20:34.931Z,98184.72
2024-04-08T20:21:39.655Z,98183.75
2024-04-08T20:22:42.988Z,98178.50
2024-04-08T20:23:45.042Z,98179.47
2024-04-08T20:24:52.303Z,98187.34
2024-04-08T20:25:55.287Z,98185.06
2024-04-08T20:26:57.509Z,98185.06
2024-04-08T20:28:02.198Z,98187.19
2024-04-08T20:29:04.424Z,98179.81
2024-04-08T20:30:07.694Z,98175.72
2024-04-08T20:31:10.478Z,98180.28
2024-04-08T20:32:15.395Z,98183.72
2024-04-08T20:33:18.277Z,98187.34
2024-04-08T20:34:20.656Z,98184.72
2024-04-08T20:35:28.780Z,98182.44
2024-04-08T20:36:31.181Z,98182.44
2024-04-08T20:37:33.259Z,98191.28
2024-04-08T20:38:36.820Z,98182.44
2024-04-08T20:39:41.523Z,98180.78
2024-04-08T20:40:43.606Z,98183.75
2024-04-08T20:41:45.697Z,98179.81
2024-04-08T20:42:48.904Z,98187.16
2024-04-08T20:43:53.813Z,98180.78
2024-04-08T20:44:56.910Z,98185.53
2024-04-08T20:45:59.147Z,98187.66
2024-04-08T20:47:03.939Z,98187.81
2024-04-08T20:48:06.806Z,98183.06
2024-04-08T20:49:09.514Z,98181.75
2024-04-08T20:50:11.727Z,98176.81
2024-04-08T20:51:19.739Z,98175.34
2024-04-08T20:52:22.168Z,98173.84
2024-04-08T20:53:24.486Z,98179.41
2024-04-08T20:54:26.645Z,98175.66
2024-04-08T20:55:31.562Z,98175.31
2024-04-08T20:56:33.639Z,98168.56
2024-04-08T20:57:35.883Z,98175.78
2024-04-08T20:58:39.356Z,98177.72
2024-04-08T20:59:44.067Z,98171.66
2024-04-08T21:00:46.458Z,98173.28
2024-04-08T21:01:48.619Z,98172.47
2024-04-08T21:02:51.755Z,98166.09
2024-04-08T21:03:56.878Z,98167.75
2024-04-08T21:04:59.058Z,98169.38
2024-04-08T21:06:01.695Z,98165.94
2024-04-08T21:07:09.220Z,98176.44
2024-04-08T21:08:11.466Z,98170.53
2024-04-08T21:09:13.782Z,98177.72
2024-04-08T21:10:15.986Z,98170.00
2024-04-08T21:11:20.825Z,98175.09
2024-04-08T21:12:23.240Z,98169.84
2024-04-08T21:13:26.071Z,98170.00
2024-04-08T21:14:30.777Z,98174.59
2024-04-08T21:15:33.183Z,98174.88
2024-04-08T21:16:35.607Z,98172.56
2024-04-08T21:17:37.819Z,98171.09
2024-04-08T21:18:43.100Z,98177.34
2024-04-08T21:19:45.330Z,98185.34
2024-04-08T21:20:48.024Z,98175.19
2024-04-08T21:21:53.152Z,98179.91
2024-04-08T21:22:58.573Z,98170.72
2024-04-08T21:24:01.526Z,98170.38
2024-04-08T21:25:05.644Z,98180.19
2024-04-08T21:26:11.913Z,98174.59
2024-04-08T21:27:14.017Z,98173.13
2024-04-08T21:28:16.154Z,98168.19
2024-04-08T21:29:20.947Z,98165.06
2024-04-08T21:30:23.234Z,98169.47
2024-04-08T21:31:25.403Z,98171.28
2024-04-08T21:32:27.704Z,98165.06
2024-04-08T21:33:32.543Z,98173.09
2024-04-08T21:34:34.749Z,98166.34
2024-04-08T21:35:39.824Z,98173.38
2024-04-08T21:36:41.919Z,98170.13
2024-04-08T21:37:46.740Z,98166.84
2024-04-08T21:38:52.477Z,98169.59
2024-04-08T21:39:54.887Z,98173.19
2024-04-08T21:40:57.440Z,98177.31
2024-04-08T21:42:02.799Z,98173.38
2024-04-08T21:43:04.922Z,98168.00
2024-04-08T21:44:07.051Z,98169.47
2024-04-08T21:45:09.199Z,98166.69
2024-04-08T21:46:17.625Z,98163.13
2024-04-08T21:47:19.795Z,98157.88
2024-04-08T21:48:22.455Z,98164.25
2024-04-08T21:49:24.716Z,98161.09
2024-04-08T21:50:36.407Z,98160.78
2024-04-08T21:51:38.626Z,98166.31
2024-04-08T21:52:40.776Z,98169.25
2024-04-08T21:53:42.861Z,98165.31
2024-04-08T21:54:50.243Z,98156.94
2024-04-08T21:55:52.912Z,98162.63
2024-04-08T21:56:55.041Z,98164.72
2024-04-08T21:57:57.459Z,98165.72
2024-04-08T21:59:02.334Z,98162.44
2024-04-08T22:00:10.860Z,98163.56
2024-04-08T22:01:13.649Z,98161.09
2024-04-08T22:02:16.134Z,98160.59
2024-04-08T22:03:21.031Z,98156.25
2024-04-08T22:04:23.332Z,98162.13
2024-04-08T22:05:25.525Z,98162.56
2024-04-08T22:06:27.762Z,98163.72
2024-04-08T22:07:32.476Z,98157.78
2024-04-08T22:08:34.593Z,98158.13
2024-04-08T22:09:36.850Z,98158.41
2024-04-08T22:10:41.903Z,98152.34
2024-04-08T22:11:46.737Z,98152.69
2024-04-08T22:12:48.790Z,98159.03
2024-04-08T22:13:51.072Z,98167.84
2024-04-08T22:14:53.588Z,98159.84
2024-04-08T22:15:58.413Z,98164.78
2024-04-08T22:17:00.549Z,98162.00
2024-04-08T22:18:03.103Z,98166.13
2024-04-08T22:19:07.963Z,98154.81
2024-04-08T22:20:10.680Z,98156.63
2024-04-08T22:21:12.788Z,98156.63
2024-04-08T22:22:14.977Z,98156.78
2024-04-08T22:23:19.718Z,98157.22
2024-04-08T22:24:21.953Z,98156.19
2024-04-08T22:25:24.305Z,98161.22
2024-04-08T22:26:31.702Z,98161.78
2024-04-08T22:27:34.076Z,98160.44
2024-04-08T22:28:36.397Z,98155.66
2024-04-08T22:29:38.611Z,98154.84
2024-04-08T22:30:43.749Z,98154.84
2024-04-08T22:31:45.882Z,98158.41
2024-04-08T22:32:48.133Z,98156.63
2024-04-08T22:33:50.461Z,98162.00
2024-04-08T22:34:55.367Z,98155.13
2024-04-08T22:35:57.455Z,98153.78
2024-04-08T22:36:59.676Z,98150.63
2024-04-08T22:38:04.502Z,98159.34
2024-04-08T22:39:07.177Z,98152.31
2024-04-08T22:40:09.613Z,98154.75
2024-04-08T22:41:18.656Z,98153.78
2024-04-08T22:42:29.999Z,98157.38
2024-04-08T22:43:32.176Z,98152.44
2024-04-08T22:44:34.329Z,98151.94
2024-04-08T22:45:36.878Z,98149.59
2024-04-08T22:46:41.761Z,98157.75
2024-04-08T22:47:44.644Z,98149.22
2024-04-08T22:48:47.190Z,98155.59
2024-04-08T22:49:49.513Z,98150.81
2024-04-08T22:50:54.230Z,98156.47
2024-04-08T22:51:56.496Z,98150.72
2024-04-08T22:52:58.690Z,98148.41
2024-04-08T22:54:01.089Z,98147.72
2024-04-08T22:55:06.180Z,98148.03
2024-04-08T22:56:08.325Z,98145.41
2024-04-08T22:57:10.582Z,98142.28
2024-04-08T22:58:18.021Z,98139.28
2024-04-08T22:59:20.205Z,98148.38
2024-04-08T23:00:22.481Z,98144.28
2024-04-08T23:01:27.315Z,98136.72
2024-04-08T23:02:30.069Z,98144.72
2024-04-08T23:03:32.736Z,98144.16
2024-04-08T23:04:35.699Z,98147.22
2024-04-08T23:05:40.492Z,98143.25
2024-04-08T23:06:42.768Z,98138.44
2024-04-08T23:07:45.055Z,98136.81
2024-04-08T23:08:47.555Z,98138.91
2024-04-08T23:09:52.235Z,98133.97
2024-04-08T23:10:54.428Z,98134.25
2024-04-08T23:11:57.117Z,98144.47
2024-04-08T23:13:01.870Z,98133.47
2024-04-08T23:14:06.698Z,98137.34
2024-04-08T23:15:08.816Z,98137.78